Time;durP1;ratioP1;P1;durP2;ratioP2;P2;SDS_P1;SDS_P2;PMS_P1;PMS_P2;Temp;Humidity;BMP_temperature;BMP_pressure;BME280_temperature;BME280_humidity;BME280_pressure;Samples;Min_cycle;Max_cycle;Signal;HPM_P1;HPM_P2
2022/01/22 00:01:31;;;;;;;10.77;8.77;;;7.00;1.00;7.30;101881.00;;;;5090178;28;20464;-83
2022/01/22 00:04:00;;;;;;;18.10;9.50;;;6.90;1.00;7.30;101895.00;;;;5056410;28;20483;-80
2022/01/22 00:06:29;;;;;;;9.40;8.30;;;6.90;1.00;7.30;101883.00;;;;5046708;28;20456;-83
2022/01/22 00:09:02;;;;;;;11.30;8.57;;;6.90;1.00;7.20;101892.00;;;;5048880;28;20448;-83
2022/01/22 00:11:36;;;;;;;9.57;7.97;;;7.00;1.00;7.20;101488.00;;;;5047896;28;20498;-85
2022/01/22 00:16:53;;;;;;;13.70;10.67;;;6.80;1.00;7.20;101885.00;;;;5066399;28;20595;-83
2022/01/22 00:19:22;;;;;;;11.33;10.23;;;6.80;1.00;7.20;101873.00;;;;5042644;28;20977;-84
2022/01/22 00:21:51;;;;;;;10.80;9.57;;;6.80;1.00;7.20;67853.00;;;;5066941;28;20869;-82
2022/01/22 00:24:20;;;;;;;10.90;9.50;;;6.80;1.00;7.20;101895.00;;;;5049978;28;20476;-83
2022/01/22 00:26:49;;;;;;;10.70;9.27;;;6.80;1.00;7.20;101883.00;;;;5063467;28;20530;-86
2022/01/22 00:29:18;;;;;;;10.70;9.50;;;7.00;1.00;7.20;101891.00;;;;5031245;28;20971;-81
2022/01/22 00:31:46;;;;;;;11.40;10.20;;;6.80;1.00;7.20;101876.00;;;;5052144;28;20482;-81
2022/01/22 00:34:15;;;;;;;8.93;6.87;;;6.80;1.00;7.20;101890.00;;;;5050350;28;20478;-82
2022/01/22 00:36:43;;;;;;;9.03;8.10;;;6.80;1.00;7.20;101898.00;;;;5066645;28;20463;-82
2022/01/22 00:39:14;;;;;;;10.90;9.77;;;6.80;1.00;7.20;101899.00;;;;5049820;28;20461;-82
2022/01/22 00:41:43;;;;;;;11.30;7.70;;;6.80;1.00;7.20;101915.00;;;;5042691;28;20456;-83
2022/01/22 00:44:12;;;;;;;10.73;8.77;;;6.80;1.00;7.10;101911.00;;;;5043070;28;20483;-83
2022/01/22 00:46:41;;;;;;;9.50;8.00;;;6.80;1.00;7.20;67848.00;;;;5040554;28;20460;-82
2022/01/22 00:49:10;;;;;;;11.83;9.27;;;7.00;1.00;7.30;101906.00;;;;5041421;28;20513;-83
2022/01/22 00:51:38;;;;;;;9.63;8.73;;;7.00;1.00;7.30;101764.00;;;;5046758;28;20871;-83
2022/01/22 00:54:07;;;;;;;9.53;8.50;;;6.90;1.00;7.20;101856.00;;;;5046152;28;20495;-83
2022/01/22 00:56:35;;;;;;;9.80;8.80;;;6.80;1.00;217.30;159823.00;;;;5060427;28;20452;-83
2022/01/22 00:59:04;;;;;;;9.20;8.30;;;6.90;1.00;7.30;101883.00;;;;5063912;28;20555;-83
2022/01/22 01:01:33;;;;;;;10.17;7.80;;;6.90;1.00;7.30;101875.00;;;;5044005;28;20542;-83
2022/01/22 01:04:03;;;;;;;10.30;9.30;;;6.90;1.00;7.20;101845.00;;;;5046310;28;20835;-83
2022/01/22 01:06:32;;;;;;;10.53;8.53;;;6.90;1.00;7.30;101873.00;;;;5070052;28;20468;-83
2022/01/22 01:09:02;;;;;;;11.53;9.10;;;6.90;1.00;7.30;101851.00;;;;5042780;28;20452;-83
2022/01/22 01:11:33;;;;;;;9.53;7.87;;;6.80;1.00;7.30;101858.00;;;;5065326;28;20472;-80
2022/01/22 01:14:04;;;;;;;9.67;7.17;;;6.90;1.00;217.30;159823.00;;;;5055380;28;20480;-82
2022/01/22 01:16:56;;;;;;;8.33;6.57;;;6.90;1.00;7.30;101901.00;;;;5068376;28;20460;-81
2022/01/22 01:33:23;;;;;;;12.00;5.50;;;6.80;1.00;7.30;101870.00;;;;5045488;28;20491;-83
2022/01/22 01:35:51;;;;;;;9.57;5.33;;;6.80;1.00;7.20;101875.00;;;;5043274;28;20822;-83
2022/01/22 01:38:22;;;;;;;6.67;4.80;;;6.80;1.00;7.20;101850.00;;;;5054241;28;20855;-83
2022/01/22 01:40:59;;;;;;;11.10;5.47;;;6.80;1.00;7.20;67854.00;;;;5071361;28;20452;-84
2022/01/22 01:43:33;;;;;;;6.73;5.10;;;6.80;1.00;7.20;101894.00;;;;5054116;28;20880;-84
2022/01/22 01:46:20;;;;;;;11.47;5.87;;;6.90;1.00;7.20;101920.00;;;;5050845;28;20462;-83
2022/01/22 01:48:50;;;;;;;6.63;4.80;;;6.80;1.00;7.20;101913.00;;;;5066668;28;20459;-82
2022/01/22 01:51:19;;;;;;;5.40;4.13;;;6.80;1.00;7.10;101918.00;;;;5046966;28;21116;-83
2022/01/22 01:53:56;;;;;;;14.90;5.47;;;6.70;1.00;7.10;101910.00;;;;5045394;28;20539;-83
2022/01/22 01:59:15;;;;;;;6.00;4.80;;;6.70;1.00;7.10;67835.00;;;;5065537;28;20660;-82
2022/01/22 02:01:44;;;;;;;5.83;4.20;;;6.70;1.00;7.10;101880.00;;;;5055978;28;20480;-82
2022/01/22 02:04:14;;;;;;;6.33;4.50;;;6.80;1.00;7.10;101891.00;;;;5081915;28;20500;-83
2022/01/22 02:06:43;;;;;;;6.63;4.47;;;6.90;1.00;7.10;101879.00;;;;5081788;28;20473;-83
2022/01/22 02:09:12;;;;;;;7.00;3.97;;;6.70;1.00;7.10;101885.00;;;;5061069;28;20452;-82
2022/01/22 02:11:42;;;;;;;6.87;3.50;;;6.70;1.00;7.10;101849.00;;;;5068958;28;20470;-82
2022/01/22 02:25:57;;;;;;;5.80;3.83;;;6.60;1.00;7.10;67828.00;;;;5071159;28;20466;-83
2022/01/22 02:28:27;;;;;;;6.20;5.00;;;6.60;1.00;7.10;101852.00;;;;5053845;28;20457;-84
2022/01/22 02:31:02;;;;;;;5.53;4.50;;;6.60;1.00;7.10;101770.00;;;;5073011;28;20498;-85
2022/01/22 02:33:57;;;;;;;6.93;4.23;;;6.60;1.00;7.10;101759.00;;;;5052949;28;20479;-82
2022/01/22 02:36:31;;;;;;;5.50;4.80;;;6.70;1.00;7.20;101891.00;;;;5051679;28;20495;-83
2022/01/22 02:39:09;;;;;;;6.00;4.23;;;6.70;1.00;6.80;67853.00;;;;5048496;28;20510;-83
2022/01/22 02:41:42;;;;;;;5.00;4.30;;;6.70;1.00;7.20;101816.00;;;;5038626;28;20539;-83
2022/01/22 02:44:14;;;;;;;8.43;4.70;;;6.70;1.00;7.20;101736.00;;;;5035371;28;20464;-82
2022/01/22 02:46:45;;;;;;;7.43;4.60;;;6.80;1.00;7.20;101842.00;;;;5039547;28;20490;-83
2022/01/22 02:49:14;;;;;;;4.77;3.70;;;6.70;1.00;217.30;159760.00;;;;5040036;28;20480;-83
2022/01/22 02:51:42;;;;;;;6.70;4.30;;;6.70;1.00;7.10;67831.00;;;;5059360;28;20480;-82
2022/01/22 02:54:12;;;;;;;4.50;3.90;;;6.60;1.00;7.10;67831.00;;;;5042528;28;21058;-82
2022/01/22 02:56:41;;;;;;;6.63;3.70;;;6.60;1.00;217.30;159744.00;;;;5045196;28;20444;-82
2022/01/22 02:59:09;;;;;;;6.87;4.00;;;6.60;1.00;7.10;101882.00;;;;5038620;28;20572;-83
2022/01/22 03:01:38;;;;;;;4.90;3.60;;;6.60;1.00;7.10;101877.00;;;;5041682;28;20974;-83
2022/01/22 03:04:06;;;;;;;7.90;4.50;;;6.60;1.00;7.00;101824.00;;;;5057226;28;21001;-83
2022/01/22 03:06:35;;;;;;;8.10;5.20;;;6.60;1.00;7.00;101781.00;;;;5041841;28;20452;-83
2022/01/22 03:09:07;;;;;;;6.80;4.77;;;6.60;1.00;7.10;67831.00;;;;5041673;28;20490;-83
2022/01/22 03:11:59;;;;;;;5.70;4.40;;;6.70;1.00;7.20;67845.00;;;;5058379;28;20456;-82
2022/01/22 03:15:02;;;;;;;4.37;3.67;;;6.70;1.00;7.20;101725.00;;;;5040276;28;20540;-83
2022/01/22 03:17:35;;;;;;;6.90;4.80;;;6.70;1.00;7.10;101738.00;;;;5037535;28;20451;-83
2022/01/22 03:20:18;;;;;;;7.60;4.00;;;6.70;1.00;7.10;67840.00;;;;5038003;28;20547;-82
2022/01/22 03:23:06;;;;;;;5.33;4.10;;;6.70;1.00;7.10;101728.00;;;;5041971;28;20476;-82
2022/01/22 03:28:27;;;;;;;7.10;4.30;;;6.70;1.00;7.10;101731.00;;;;5058087;28;20563;-83
2022/01/22 03:30:55;;;;;;;4.23;3.83;;;6.70;1.00;7.10;101730.00;;;;5057997;28;20977;-83
2022/01/22 03:33:25;;;;;;;5.53;4.77;;;6.70;1.00;7.10;101715.00;;;;5057828;28;21760;-83
2022/01/22 03:35:59;;;;;;;4.87;4.37;;;6.70;1.00;7.20;101714.00;;;;5037773;28;20475;-83
2022/01/22 03:38:27;;;;;;;5.43;4.90;;;6.70;1.00;7.10;101717.00;;;;5061112;28;20462;-83
2022/01/22 03:40:56;;;;;;;4.93;4.07;;;6.70;1.00;7.20;101832.00;;;;5063020;28;20488;-83
2022/01/22 03:43:27;;;;;;;9.53;5.13;;;6.70;1.00;217.30;159750.00;;;;5064444;28;21379;-82
2022/01/22 03:45:55;;;;;;;4.90;4.40;;;6.70;1.00;7.10;101743.00;;;;5069424;28;20450;-82
2022/01/22 03:48:24;;;;;;;5.23;4.73;;;6.70;1.00;7.20;101718.00;;;;5052382;28;20452;-83
2022/01/22 03:50:53;;;;;;;5.40;3.97;;;6.70;1.00;7.20;101737.00;;;;5061396;28;20476;-83
2022/01/22 03:53:22;;;;;;;5.70;4.40;;;6.90;1.00;7.20;101827.00;;;;5062429;28;20563;-83
2022/01/22 03:56:01;;;;;;;4.37;3.97;;;6.80;1.00;7.20;101712.00;;;;5061332;28;20458;-84
2022/01/22 03:58:57;;;;;;;5.20;3.70;;;6.80;1.00;7.20;101739.00;;;;5048864;28;20483;-82
2022/01/22 04:04:41;;;;;;;4.60;4.00;;;6.70;1.00;7.30;101717.00;;;;5048597;28;20460;-83
2022/01/22 04:09:57;;;;;;;5.30;4.60;;;6.90;1.00;7.30;101716.00;;;;5072194;28;20487;-83
2022/01/22 04:12:34;;;;;;;4.50;3.67;;;6.90;1.00;7.30;101714.00;;;;5069373;28;20444;-83
2022/01/22 04:15:06;;;;;;;5.70;3.60;;;6.90;1.00;7.30;101717.00;;;;5045591;28;20470;-83
2022/01/22 04:26:02;;;;;;;5.43;4.37;;;6.90;1.00;7.30;67888.00;;;;5051155;28;20456;-83
2022/01/22 04:28:30;;;;;;;5.47;3.73;;;6.90;1.00;7.30;67875.00;;;;5072716;28;20468;-83
2022/01/22 04:31:00;;;;;;;5.33;4.20;;;6.90;1.00;7.30;101716.00;;;;5046153;28;20976;-83
2022/01/22 04:33:29;;;;;;;4.03;3.63;;;6.90;1.00;7.30;101727.00;;;;5048764;28;20476;-83
2022/01/22 04:35:57;;;;;;;4.23;3.50;;;6.80;1.00;217.30;159807.00;;;;5042430;28;20478;-82
2022/01/22 04:38:26;;;;;;;4.43;4.03;;;6.80;1.00;7.30;101804.00;;;;5056315;28;21178;-82
2022/01/22 04:40:55;;;;;;;4.27;3.87;;;6.80;1.00;7.30;101722.00;;;;5046390;28;20453;-82
2022/01/22 04:43:23;;;;;;;4.40;3.87;;;6.80;1.00;7.30;101743.00;;;;5041382;28;20830;-82
2022/01/22 04:46:06;;;;;;;4.30;3.90;;;6.90;1.00;7.30;101730.00;;;;5051336;28;20910;-83
2022/01/22 04:48:51;;;;;;;6.20;4.07;;;6.90;1.00;7.30;101741.00;;;;5063305;28;20555;-82
2022/01/22 04:56:57;;;;;;;4.50;3.80;;;6.90;1.00;7.30;101727.00;;;;5051867;28;20964;-84
2022/01/22 04:59:25;;;;;;;5.93;4.03;;;6.80;1.00;7.30;101744.00;;;;5060530;28;20448;-84
2022/01/22 05:01:53;;;;;;;4.40;3.37;;;6.90;1.00;7.30;101741.00;;;;5062437;28;20444;-82
2022/01/22 05:04:33;;;;;;;4.07;3.77;;;7.00;1.00;7.30;101729.00;;;;5079812;28;20490;-83
2022/01/22 05:07:20;;;;;;;4.50;3.67;;;6.80;1.00;7.40;101739.00;;;;5055065;28;20479;-83
2022/01/22 05:10:17;;;;;;;4.87;4.30;;;6.90;1.00;7.40;101745.00;;;;5056255;28;20456;-82
2022/01/22 05:12:46;;;;;;;4.27;3.87;;;6.90;1.00;7.40;101732.00;;;;5045438;28;20472;-82
2022/01/22 05:15:17;;;;;;;3.60;3.30;;;7.00;1.00;7.40;101739.00;;;;5041165;28;20491;-82
2022/01/22 05:17:46;;;;;;;4.40;4.00;;;7.00;1.00;7.40;101745.00;;;;5044679;28;20766;-82
2022/01/22 05:20:25;;;;;;;4.03;3.53;;;7.00;1.00;217.30;159887.00;;;;5057258;28;20455;-81
2022/01/22 05:22:59;;;;;;;4.40;4.00;;;7.00;1.00;7.40;101747.00;;;;5048453;28;20480;-81
2022/01/22 05:25:33;;;;;;;3.90;3.50;;;7.00;1.00;7.50;67913.00;;;;5051585;28;20453;-82
2022/01/22 05:28:20;;;;;;;4.77;3.13;;;7.00;1.00;7.50;101751.00;;;;5051224;28;20448;-82
2022/01/22 05:31:22;;;;;;;4.57;3.87;;;7.00;1.00;7.40;101755.00;;;;5032725;28;20512;-82
2022/01/22 05:37:08;;;;;;;4.30;3.60;;;7.10;1.00;7.40;101736.00;;;;5052813;28;20456;-83
2022/01/22 05:39:37;;;;;;;4.43;3.40;;;7.00;1.00;7.50;101741.00;;;;5054889;28;20448;-82
2022/01/22 05:42:09;;;;;;;3.60;3.30;;;7.20;1.00;7.50;101750.00;;;;5045390;28;20460;-82
2022/01/22 05:44:38;;;;;;;4.77;4.37;;;7.00;1.00;7.50;101759.00;;;;5044782;28;20586;-82
2022/01/22 05:47:07;;;;;;;4.67;3.97;;;7.00;1.00;7.50;101737.00;;;;5043062;28;20837;-82
2022/01/22 05:49:41;;;;;;;4.43;3.93;;;7.00;1.00;7.50;101750.00;;;;5042152;28;20464;-82
2022/01/22 05:52:15;;;;;;;4.87;3.80;;;7.00;1.00;7.50;101751.00;;;;5042792;28;20470;-82
2022/01/22 05:54:57;;;;;;;4.47;4.07;;;7.10;1.00;7.50;67919.00;;;;5056852;28;20557;-83
2022/01/22 06:00:23;;;;;;;4.83;4.40;;;7.10;1.00;7.60;101738.00;;;;5056344;28;20452;-82
2022/01/22 06:02:59;;;;;;;4.90;4.40;;;7.20;1.00;7.60;101732.00;;;;5078193;28;20472;-82
2022/01/22 06:05:28;;;;;;;4.83;4.33;;;7.10;1.00;7.60;101762.00;;;;5045358;28;20456;-81
2022/01/22 06:07:58;;;;;;;4.30;3.67;;;7.20;1.00;7.60;101754.00;;;;5042918;28;20531;-82
2022/01/22 06:10:29;;;;;;;5.00;4.50;;;7.10;1.00;7.50;101755.00;;;;5045831;28;20483;-82
2022/01/22 06:13:10;;;;;;;4.67;4.23;;;7.10;1.00;7.50;101863.00;;;;5041832;28;20486;-82
2022/01/22 06:15:39;;;;;;;5.17;4.70;;;7.00;1.00;217.30;159875.00;;;;5059295;28;20522;-82
2022/01/22 06:18:26;;;;;;;6.40;4.80;;;7.00;1.00;7.40;101744.00;;;;5047451;28;20574;-81
2022/01/22 06:20:55;;;;;;;4.77;4.30;;;7.10;1.00;217.30;159887.00;;;;5042486;28;20475;-83
2022/01/22 06:23:24;;;;;;;4.73;4.33;;;7.00;1.00;7.50;101764.00;;;;5040854;28;20479;-82
2022/01/22 06:25:53;;;;;;;5.47;4.97;;;7.10;1.00;217.30;159903.00;;;;5059223;28;20480;-82
2022/01/22 06:28:21;;;;;;;5.40;4.30;;;7.10;1.00;7.50;101754.00;;;;5060951;28;20552;-82
2022/01/22 06:30:52;;;;;;;5.40;4.90;;;7.00;1.00;7.50;101755.00;;;;5052686;28;20457;-82
2022/01/22 06:33:23;;;;;;;4.87;4.47;;;7.00;1.00;7.50;101752.00;;;;5075234;28;20502;-82
2022/01/22 06:35:51;;;;;;;4.63;4.20;;;7.10;1.00;7.40;101750.00;;;;5078044;28;20579;-82
2022/01/22 06:38:20;;;;;;;6.23;5.60;;;7.00;1.00;7.40;101737.00;;;;5057450;28;20467;-82
2022/01/22 06:44:23;;;;;;;6.13;5.53;;;6.90;1.00;7.30;101737.00;;;;5025641;28;20475;-83
2022/01/22 06:46:56;;;;;;;6.00;5.30;;;7.00;1.00;7.30;101747.00;;;;5047647;28;20468;-81
2022/01/22 06:49:49;;;;;;;7.33;6.60;;;6.90;1.00;217.30;159855.00;;;;5045872;28;20460;-83
2022/01/22 06:52:37;;;;;;;6.47;5.97;;;6.90;1.00;7.50;101762.00;;;;5039211;28;20478;-82
2022/01/22 06:55:11;;;;;;;5.70;5.20;;;7.00;1.00;7.50;101779.00;;;;5059636;28;20479;-82
2022/01/22 06:57:41;;;;;;;6.33;5.73;;;7.10;1.00;7.60;101786.00;;;;5042413;28;20548;-83
2022/01/22 07:00:15;;;;;;;6.40;5.80;;;7.10;1.00;7.60;101772.00;;;;5039462;28;20464;-83
2022/01/22 07:02:55;;;;;;;7.37;6.67;;;7.10;1.00;7.60;101885.00;;;;5055960;28;20488;-83
2022/01/22 07:05:24;;;;;;;7.30;6.70;;;7.00;1.00;7.50;101846.00;;;;5057840;28;20476;-83
2022/01/22 07:08:13;;;;;;;7.10;6.40;;;7.10;1.00;7.50;101839.00;;;;5035959;28;20457;-82
2022/01/22 07:10:44;;;;;;;8.20;7.40;;;7.10;1.00;7.60;101803.00;;;;5058135;28;20466;-83
2022/01/22 07:13:13;;;;;;;7.73;7.03;;;7.20;1.00;7.70;101800.00;;;;5060585;28;20489;-82
2022/01/22 07:15:42;;;;;;;7.00;6.40;;;7.20;1.00;7.70;67954.00;;;;5060950;28;20471;-83
2022/01/22 07:18:15;;;;;;;7.97;7.20;;;7.20;1.00;217.30;159944.00;;;;5064160;28;20495;-82
2022/01/22 07:20:45;;;;;;;7.70;7.00;;;7.20;1.00;7.60;101800.00;;;;5063677;28;20456;-83
2022/01/22 07:23:18;;;;;;;8.93;8.10;;;7.10;1.00;7.60;101798.00;;;;5060435;28;20532;-83
2022/01/22 07:26:08;;;;;;;8.20;7.50;;;7.20;1.00;217.30;159934.00;;;;5062762;28;20559;-81
2022/01/22 07:29:11;;;;;;;8.10;7.40;;;7.20;1.00;7.70;101810.00;;;;5052482;28;20460;-81
2022/01/22 07:31:40;;;;;;;7.63;6.93;;;7.20;1.00;7.60;101537.00;;;;5050079;28;20457;-82
2022/01/22 07:34:11;;;;;;;7.70;7.00;;;7.20;1.00;7.70;101823.00;;;;5050396;28;20539;-82
2022/01/22 07:36:40;;;;;;;8.30;7.50;;;7.20;1.00;7.70;101815.00;;;;5068273;28;20989;-82
2022/01/22 07:39:08;;;;;;;10.93;8.57;;;7.20;1.00;7.60;101814.00;;;;5068562;28;20462;-82
2022/01/22 07:41:51;;;;;;;8.77;7.97;;;7.20;1.00;7.70;101802.00;;;;5049871;28;20554;-82
2022/01/22 07:44:44;;;;;;;9.07;8.17;;;7.20;1.00;7.70;101805.00;;;;5060775;28;20528;-82
2022/01/22 07:47:12;;;;;;;8.97;7.30;;;7.30;1.00;7.80;101803.00;;;;5060039;28;20467;-82
2022/01/22 07:49:42;;;;;;;9.23;8.40;;;7.40;1.00;7.90;101804.00;;;;5069230;28;20853;-82
2022/01/22 07:52:11;;;;;;;8.93;8.13;;;7.50;1.00;7.90;101812.00;;;;5050267;28;20591;-81
2022/01/22 07:54:40;;;;;;;9.50;8.70;;;7.50;1.00;7.90;101818.00;;;;5044476;28;20459;-82
2022/01/22 07:57:08;;;;;;;8.13;7.33;;;7.50;1.00;7.90;101799.00;;;;5045269;28;20460;-82
2022/01/22 07:59:37;;;;;;;9.23;8.37;;;7.50;1.00;7.90;68012.00;;;;5044747;28;20460;-82
2022/01/22 08:02:07;;;;;;;9.13;8.33;;;7.50;1.00;217.30;160091.00;;;;5068773;28;20448;-82
2022/01/22 08:04:36;;;;;;;8.53;7.77;;;7.50;1.00;52.70;160091.00;;;;5049958;28;20530;-83
2022/01/22 08:07:23;;;;;;;9.07;8.27;;;7.50;1.00;8.00;68019.00;;;;5053116;28;20472;-83
2022/01/22 08:10:20;;;;;;;7.57;6.87;;;7.50;1.00;8.00;101950.00;;;;5056571;28;20452;-83
2022/01/22 08:12:53;;;;;;;8.00;7.20;;;7.60;1.00;8.00;101814.00;;;;5076316;28;20492;-82
2022/01/22 08:15:22;;;;;;;8.73;7.93;;;7.60;1.00;8.00;101941.00;;;;5076709;28;20478;-82
2022/01/22 08:17:52;;;;;;;8.77;8.07;;;7.60;1.00;8.10;68054.00;;;;5052484;28;20479;-82
2022/01/22 08:20:21;;;;;;;8.47;7.77;;;7.70;1.00;8.20;101827.00;;;;5071129;28;20452;-83
2022/01/22 08:22:53;;;;;;;8.30;7.57;;;7.80;1.00;8.20;101944.00;;;;5049501;28;20555;-82
2022/01/22 08:25:44;;;;;;;8.60;7.80;;;7.70;1.00;8.20;101836.00;;;;5048006;28;20452;-82
2022/01/22 08:31:19;;;;;;;8.60;7.80;;;7.80;1.00;8.20;101954.00;;;;5072905;28;20455;-82
2022/01/22 08:36:39;;;;;;;8.03;7.33;;;7.80;1.00;8.20;101942.00;;;;5060177;28;20480;-81
2022/01/22 08:39:07;;;;;;;8.40;7.70;;;7.80;1.00;8.30;101925.00;;;;5085146;28;20484;-82
2022/01/22 08:41:37;;;;;;;8.17;7.47;;;8.00;1.00;8.40;101835.00;;;;5068781;28;20468;-82
2022/01/22 08:44:07;;;;;;;8.53;7.80;;;7.90;1.00;8.40;101940.00;;;;5089716;28;20680;-81
2022/01/22 08:46:36;;;;;;;9.60;8.70;;;7.90;1.00;8.30;101950.00;;;;5066782;28;20456;-84
2022/01/22 08:49:07;;;;;;;7.90;7.20;;;7.90;1.00;8.30;68102.00;;;;5067599;28;20478;-83
2022/01/22 08:51:44;;;;;;;7.90;7.20;;;7.90;1.00;8.30;101860.00;;;;5076452;28;20457;-82
2022/01/22 08:54:12;;;;;;;6.20;5.60;;;7.80;1.00;8.20;101980.00;;;;5049170;28;20476;-81
2022/01/22 08:56:41;;;;;;;8.00;7.30;;;7.80;1.00;8.20;101968.00;;;;5070184;28;20894;-82
2022/01/22 08:59:12;;;;;;;7.80;7.10;;;7.80;1.00;8.20;101962.00;;;;5071920;28;20460;-82
2022/01/22 09:01:45;;;;;;;9.47;8.57;;;7.80;1.00;8.30;101843.00;;;;5056155;28;20531;-83
2022/01/22 09:04:54;;;;;;;9.87;8.87;;;7.80;1.00;8.40;101957.00;;;;5044999;28;20456;-81
2022/01/22 09:07:25;;;;;;;7.13;6.43;;;7.90;1.00;8.40;101863.00;;;;5053197;28;20926;-83
2022/01/22 09:09:54;;;;;;;8.40;7.70;;;8.00;1.00;8.30;102020.00;;;;5056347;28;20465;-83
2022/01/22 09:12:43;;;;;;;9.50;8.67;;;8.00;1.00;8.30;102013.00;;;;5050222;28;20476;-83
2022/01/22 09:15:27;;;;;;;9.80;8.90;;;8.00;1.00;8.40;68119.00;;;;5054830;28;20454;-84
2022/01/22 09:17:55;;;;;;;9.40;8.60;;;8.00;1.00;8.40;68121.00;;;;5062776;28;20475;-83
2022/01/22 09:20:44;;;;;;;9.93;8.93;;;8.00;1.00;8.40;68119.00;;;;5057026;28;20563;-83
2022/01/22 09:23:15;;;;;;;9.83;8.93;;;8.00;1.00;8.50;101912.00;;;;5063472;28;20476;-83
2022/01/22 09:25:44;;;;;;;10.17;9.17;;;8.10;1.00;8.60;102017.00;;;;5059287;28;20459;-81
2022/01/22 09:28:14;;;;;;;9.63;8.73;;;8.20;1.00;8.70;102031.00;;;;5054398;28;20447;-82
2022/01/22 09:30:47;;;;;;;10.03;9.13;;;8.30;1.00;8.80;102026.00;;;;5069048;28;20443;-83
2022/01/22 09:33:17;;;;;;;9.63;8.73;;;8.40;1.00;8.90;102018.00;;;;5083762;28;20479;-82
2022/01/22 09:36:19;;;;;;;10.33;9.33;;;8.50;1.00;9.00;102040.00;;;;5068055;28;20462;-82
2022/01/22 09:39:11;;;;;;;10.03;9.00;;;8.60;1.00;217.30;160561.00;;;;5062324;28;20465;-83
2022/01/22 09:41:49;;;;;;;10.20;9.20;;;8.80;1.00;9.00;102051.00;;;;5068149;28;20810;-83
2022/01/22 09:44:38;;;;;;;9.10;8.20;;;8.60;1.00;9.00;102027.00;;;;5060919;28;20464;-82
2022/01/22 09:47:40;;;;;;;10.10;9.20;;;8.60;1.00;9.00;102024.00;;;;5052205;28;20475;-82
2022/01/22 09:50:30;;;;;;;9.40;8.50;;;8.60;1.00;9.00;102031.00;;;;5063564;28;20439;-81
2022/01/22 09:53:20;;;;;;;10.57;9.57;;;8.60;1.00;9.10;101881.00;;;;5059967;28;20475;-82
2022/01/22 09:56:27;;;;;;;9.90;9.00;;;8.70;1.00;9.20;102022.00;;;;5048464;28;20460;-83
2022/01/22 09:59:16;;;;;;;9.37;8.53;;;8.80;1.00;9.20;102009.00;;;;5010362;28;20509;-83
2022/01/22 10:02:13;;;;;;;9.50;8.60;;;8.80;1.00;9.20;102027.00;;;;5054340;28;20505;-83
2022/01/22 10:04:45;;;;;;;10.53;9.53;;;8.80;1.00;9.20;102011.00;;;;5070525;28;20491;-82
2022/01/22 10:07:30;;;;;;;11.40;10.30;;;8.70;1.00;9.10;102033.00;;;;5052008;28;20546;-82
2022/01/22 10:10:15;;;;;;;10.77;9.67;;;8.70;1.00;9.10;102034.00;;;;5048652;28;20856;-82
2022/01/22 10:13:09;;;;;;;11.50;10.33;;;8.90;1.00;9.10;102040.00;;;;5048621;28;20477;-84
2022/01/22 10:15:44;;;;;;;11.77;10.60;;;8.70;1.00;9.20;102009.00;;;;5073888;28;20462;-84
2022/01/22 10:18:20;;;;;;;11.17;10.00;;;8.80;1.00;9.10;68279.00;;;;5065544;28;20456;-83
2022/01/22 10:20:49;;;;;;;9.70;8.70;;;8.80;1.00;9.20;68290.00;;;;5056966;28;20463;-83
2022/01/22 10:23:27;;;;;;;9.00;8.17;;;8.80;1.00;9.10;102036.00;;;;5071637;28;20472;-85
2022/01/22 10:26:03;;;;;;;11.40;10.30;;;8.80;1.00;217.30;160626.00;;;;5063089;28;20441;-83
2022/01/22 10:28:44;;;;;;;9.87;8.80;;;8.80;1.00;9.20;102035.00;;;;5050103;28;20455;-82
2022/01/22 10:31:23;;;;;;;10.77;9.67;;;8.90;1.00;9.20;68290.00;;;;5059333;28;20478;-83
2022/01/22 10:34:13;;;;;;;9.77;8.77;;;8.80;1.00;9.20;102043.00;;;;5052916;28;20568;-83
2022/01/22 10:37:02;;;;;;;10.37;8.90;;;8.80;1.00;9.20;68293.00;;;;5053432;28;20478;-84
2022/01/22 10:39:49;;;;;;;10.40;9.10;;;8.70;1.00;9.40;68340.00;;;;5054069;28;20458;-83
2022/01/22 10:42:25;;;;;;;11.37;10.27;;;8.90;1.00;9.50;102046.00;;;;5072698;28;20620;-83
2022/01/22 10:45:00;;;;;;;11.70;9.17;;;9.00;1.00;9.40;102062.00;;;;5068719;28;20456;-82
2022/01/22 10:47:29;;;;;;;10.83;9.73;;;9.00;1.00;9.40;102058.00;;;;5067218;28;20484;-84
2022/01/22 10:50:18;;;;;;;11.50;10.30;;;9.20;1.00;9.40;102054.00;;;;5047686;28;20551;-84
2022/01/22 10:52:49;;;;;;;10.80;9.70;;;9.00;1.00;9.40;68335.00;;;;5049074;28;20479;-82
2022/01/22 10:55:18;;;;;;;11.97;10.03;;;9.10;1.00;9.50;68357.00;;;;5050568;28;20486;-83
2022/01/22 10:58:10;;;;;;;10.90;9.20;;;9.10;1.00;9.50;102048.00;;;;5042971;28;20738;-83
2022/01/22 11:00:38;;;;;;;10.80;9.70;;;9.10;1.00;9.50;102051.00;;;;5041532;28;20644;-83
2022/01/22 11:03:21;;;;;;;11.27;9.73;;;9.10;1.00;9.50;102051.00;;;;5064609;28;20476;-82
2022/01/22 11:05:49;;;;;;;9.90;8.90;;;9.20;1.00;9.50;102044.00;;;;5063965;28;20453;-82
2022/01/22 11:08:18;;;;;;;12.43;10.53;;;9.20;1.00;9.50;68357.00;;;;5065551;28;20500;-81
2022/01/22 11:10:47;;;;;;;9.53;8.53;;;9.10;1.00;9.50;68365.00;;;;5061127;28;20452;-82
2022/01/22 11:13:16;;;;;;;11.57;10.37;;;9.10;1.00;9.50;102057.00;;;;5043647;28;20479;-83
2022/01/22 11:15:46;;;;;;;9.50;8.60;;;9.10;1.00;9.50;68365.00;;;;5047354;28;20459;-81
2022/01/22 11:18:17;;;;;;;9.90;8.90;;;9.10;1.00;9.50;102058.00;;;;5047904;28;20468;-83
2022/01/22 11:20:53;;;;;;;11.63;9.60;;;9.20;1.00;9.50;68357.00;;;;5053479;28;20451;-83
2022/01/22 11:23:23;;;;;;;12.73;11.40;;;9.10;1.00;9.50;101962.00;;;;5059392;28;20480;-81
2022/01/22 11:25:52;;;;;;;12.77;11.00;;;9.10;1.00;9.60;102073.00;;;;5051593;28;20530;-82
2022/01/22 11:28:22;;;;;;;10.87;9.77;;;9.20;1.00;9.70;102065.00;;;;5054888;28;20494;-82
2022/01/22 11:30:52;;;;;;;11.57;10.37;;;9.30;1.00;9.80;101908.00;;;;5073671;28;20548;-83
2022/01/22 11:33:23;;;;;;;11.00;9.73;;;9.40;1.00;9.80;102059.00;;;;5056025;28;20479;-83
2022/01/22 11:36:03;;;;;;;14.77;11.63;;;9.40;1.00;9.80;101901.00;;;;5061849;28;20462;-83
2022/01/22 11:38:36;;;;;;;11.83;10.57;;;9.50;1.00;9.90;101931.00;;;;5043335;28;20565;-81
2022/01/22 11:41:09;;;;;;;9.83;8.83;;;9.40;1.00;9.90;101916.00;;;;5043945;28;20463;-82
2022/01/22 11:44:05;;;;;;;8.57;7.67;;;9.40;1.00;9.70;101911.00;;;;5069000;28;20507;-82
2022/01/22 11:46:39;;;;;;;7.83;6.40;;;9.30;1.00;9.50;101892.00;;;;5057309;28;20462;-83
2022/01/22 11:49:14;;;;;;;8.17;7.20;;;9.10;1.00;9.40;101908.00;;;;5071492;28;20456;-83
2022/01/22 11:51:46;;;;;;;9.60;8.67;;;9.00;1.00;9.40;101895.00;;;;5058072;28;20566;-82
2022/01/22 11:54:25;;;;;;;7.93;7.13;;;8.90;1.00;9.50;101900.00;;;;5056939;28;20487;-82
2022/01/22 11:57:03;;;;;;;9.33;8.30;;;9.00;1.00;9.50;101901.00;;;;5060942;28;20465;-83
2022/01/22 11:59:34;;;;;;;9.63;8.33;;;9.10;1.00;9.70;101902.00;;;;5054805;28;20460;-81
2022/01/22 12:02:07;;;;;;;7.43;6.73;;;9.20;1.00;9.80;101915.00;;;;5065376;28;20547;-82
2022/01/22 12:04:53;;;;;;;6.77;4.93;;;9.30;1.00;9.80;101908.00;;;;5047229;28;20859;-83
2022/01/22 12:07:26;;;;;;;6.63;6.03;;;9.30;1.00;9.90;102052.00;;;;5058664;28;20521;-82
2022/01/22 12:16:50;;;;;;;6.23;5.47;;;9.30;1.00;9.60;102045.00;;;;5059279;28;20581;-82
2022/01/22 12:20:03;;;;;;;7.47;5.87;;;9.20;1.00;9.60;101923.00;;;;5088817;28;20467;-82
2022/01/22 12:22:33;;;;;;;6.87;5.40;;;9.00;1.00;9.70;101907.00;;;;5064912;28;20436;-82
2022/01/22 12:25:05;;;;;;;9.33;5.23;;;9.10;1.00;9.60;101905.00;;;;5062456;28;20455;-82
2022/01/22 12:27:43;;;;;;;6.13;5.53;;;9.10;1.00;9.50;101889.00;;;;5057261;28;20769;-83
2022/01/22 12:30:12;;;;;;;6.20;5.20;;;9.00;1.00;9.40;68340.00;;;;5055484;28;20480;-85
2022/01/22 12:32:46;;;;;;;7.20;5.43;;;9.00;1.00;9.40;102044.00;;;;5053375;28;20461;-83
2022/01/22 12:35:18;;;;;;;6.73;5.63;;;9.00;1.00;9.30;101914.00;;;;5077601;28;21044;-82
2022/01/22 12:37:59;;;;;;;8.50;7.33;;;8.90;1.00;9.30;101910.00;;;;5050522;28;20476;-82
2022/01/22 12:40:34;;;;;;;11.40;9.23;;;8.90;1.00;52.70;160684.00;;;;5052147;28;20479;-83
2022/01/22 12:43:11;;;;;;;7.23;5.07;;;8.90;1.00;217.30;160668.00;;;;5058519;28;20551;-84
2022/01/22 12:45:45;;;;;;;5.20;4.53;;;8.70;1.00;9.00;102021.00;;;;5071500;28;20482;-83
2022/01/22 12:48:16;;;;;;;6.90;6.20;;;8.50;1.00;9.00;68256.00;;;;5053356;28;20478;-82
2022/01/22 12:50:45;;;;;;;13.63;12.17;;;8.50;1.00;9.00;102045.00;;;;5071651;28;20554;-82
2022/01/22 12:53:17;;;;;;;13.67;9.80;;;8.40;1.00;9.10;68269.00;;;;5050805;28;20471;-83
2022/01/22 12:58:36;;;;;;;5.80;4.90;;;8.60;1.00;9.20;68293.00;;;;5050726;28;20627;-83
2022/01/22 13:01:19;;;;;;;6.60;6.00;;;8.60;1.00;217.30;160599.00;;;;5055954;28;21346;-83